createdAt,value
2019-02-27T00:02:45.181Z,100497.39
2019-02-27T00:07:48.326Z,100498.70
2019-02-27T00:12:52.014Z,100496.56
2019-02-27T00:17:55.680Z,100496.13
2019-02-27T00:22:58.702Z,100498.08
2019-02-27T00:28:01.803Z,100502.19
2019-02-27T00:33:05.376Z,100500.12
2019-02-27T00:38:08.577Z,100501.00
2019-02-27T00:43:28.434Z,100508.25
2019-02-27T00:48:32.247Z,100513.55
2019-02-27T00:53:35.323Z,100506.05
2019-02-27T00:58:38.509Z,100510.53
2019-02-27T01:03:41.669Z,100512.28
2019-02-27T01:08:45.190Z,100513.15
2019-02-27T01:13:48.393Z,100517.97
2019-02-27T01:18:51.363Z,100520.67
2019-02-27T01:23:54.648Z,100518.16
2019-02-27T01:28:57.648Z,100504.36
2019-02-27T01:34:00.721Z,100505.00
2019-02-27T01:39:09.012Z,100492.55
2019-02-27T01:44:13.702Z,100496.87
2019-02-27T01:49:16.816Z,100483.94
2019-02-27T01:54:20.075Z,100481.95
2019-02-27T01:59:23.439Z,100470.36
2019-02-27T02:04:26.685Z,100465.77
2019-02-27T02:09:35.893Z,100452.66
2019-02-27T02:15:16.834Z,100442.36
2019-02-27T02:20:46.671Z,100436.38
2019-02-27T02:26:23.727Z,100428.72
2019-02-27T02:32:04.976Z,100420.91
2019-02-27T02:38:14.213Z,100424.07
2019-02-27T02:44:36.634Z,100441.16
2019-02-27T02:50:29.201Z,100450.81
2019-02-27T02:56:24.967Z,100453.02
2019-02-27T03:01:57.819Z,100456.02
2019-02-27T03:07:50.087Z,100448.42
2019-02-27T03:13:45.779Z,100442.50
2019-02-27T03:19:41.727Z,100434.59
2019-02-27T03:25:40.112Z,100434.05
2019-02-27T03:31:39.180Z,100441.73
2019-02-27T03:37:21.504Z,100447.81
2019-02-27T03:43:24.297Z,100447.67
2019-02-27T03:49:17.040Z,100447.45
2019-02-27T03:54:45.478Z,100434.97
2019-02-27T04:00:52.593Z,100435.88
2019-02-27T04:07:14.616Z,100434.63
2019-02-27T04:12:17.662Z,100439.84
2019-02-27T04:17:26.921Z,100436.68
2019-02-27T04:22:29.979Z,100440.11
2019-02-27T04:27:32.906Z,100440.52
2019-02-27T04:32:35.929Z,100437.98
2019-02-27T04:37:39.059Z,100445.94
2019-02-27T04:42:42.041Z,100439.89
2019-02-27T04:47:44.988Z,100430.86
2019-02-27T04:52:48.072Z,100432.84
2019-02-27T04:57:51.117Z,100443.03
2019-02-27T05:02:54.178Z,100452.16
2019-02-27T05:07:57.387Z,100452.50
2019-02-27T05:13:00.386Z,100470.34
2019-02-27T05:18:03.507Z,100474.21
2019-02-27T05:23:06.481Z,100470.77
2019-02-27T05:28:09.549Z,100463.56
2019-02-27T05:33:12.608Z,100468.73
2019-02-27T05:38:15.801Z,100479.20
2019-02-27T05:43:18.795Z,100484.77
2019-02-27T05:48:21.886Z,100485.22
2019-02-27T05:53:24.891Z,100482.05
2019-02-27T05:58:28.079Z,100487.34
2019-02-27T06:03:31.074Z,100497.42
2019-02-27T06:08:36.694Z,100487.25
2019-02-27T06:13:39.589Z,100482.23
2019-02-27T06:18:43.071Z,100488.77
2019-02-27T06:23:46.119Z,100500.08
2019-02-27T06:28:49.226Z,100503.47
2019-02-27T06:33:52.326Z,100514.55
2019-02-27T06:39:00.150Z,100510.64
2019-02-27T06:44:01.513Z,100515.78
2019-02-27T06:49:05.777Z,100510.00
2019-02-27T06:54:08.968Z,100507.67
2019-02-27T06:59:11.955Z,100510.70
2019-02-27T07:04:15.047Z,100511.25
2019-02-27T07:09:18.079Z,100513.48
2019-02-27T07:14:21.409Z,100515.40
2019-02-27T07:19:24.392Z,100508.86
2019-02-27T07:24:27.445Z,100506.33
2019-02-27T07:29:30.454Z,100503.79
2019-02-27T07:34:33.437Z,100505.59
2019-02-27T07:39:36.400Z,100495.91
2019-02-27T07:44:39.554Z,100509.42
2019-02-27T07:49:42.591Z,100505.69
2019-02-27T07:54:45.953Z,100500.50
2019-02-27T07:59:49.095Z,100493.48
2019-02-27T08:04:54.724Z,100510.59
2019-02-27T08:09:57.360Z,100521.70
2019-02-27T08:15:00.336Z,100524.77
2019-02-27T08:20:04.045Z,100519.20
2019-02-27T08:25:08.791Z,100512.47
2019-02-27T08:30:15.658Z,100503.24
2019-02-27T08:35:18.700Z,100498.41
2019-02-27T08:40:24.356Z,100495.56
2019-02-27T08:45:27.111Z,100500.14
2019-02-27T08:50:31.765Z,100483.72
2019-02-27T08:55:39.024Z,100478.31
2019-02-27T09:00:40.499Z,100473.05
2019-02-27T09:05:43.545Z,100475.78
2019-02-27T09:10:46.588Z,100484.13
2019-02-27T09:15:49.541Z,100493.28
2019-02-27T09:20:53.532Z,100484.01
2019-02-27T09:25:57.645Z,100496.53
2019-02-27T09:31:04.298Z,100491.72
2019-02-27T09:36:08.037Z,100495.04
2019-02-27T09:41:12.406Z,100492.16
2019-02-27T09:46:19.297Z,100498.61
2019-02-27T09:51:22.179Z,100493.53
2019-02-27T09:56:29.219Z,100489.55
2019-02-27T10:01:34.163Z,100491.73
2019-02-27T10:06:35.850Z,100500.58
2019-02-27T10:11:38.800Z,100500.00
2019-02-27T10:16:41.856Z,100492.17
2019-02-27T10:21:45.386Z,100499.02
2019-02-27T10:26:48.505Z,100498.22
2019-02-27T10:31:51.492Z,100488.31
2019-02-27T10:36:54.664Z,100492.30
2019-02-27T10:41:57.726Z,100489.05
2019-02-27T10:47:00.841Z,100475.95
2019-02-27T10:52:03.924Z,100458.34
2019-02-27T10:57:06.944Z,100453.27
2019-02-27T11:02:12.519Z,100452.95
2019-02-27T11:07:15.903Z,100439.69
2019-02-27T11:12:19.826Z,100440.73
2019-02-27T11:17:22.767Z,100433.84
2019-02-27T11:22:25.753Z,100417.41
2019-02-27T11:27:28.775Z,100413.97
2019-02-27T11:32:31.764Z,100404.44
2019-02-27T11:37:34.982Z,100399.94
2019-02-27T11:42:37.957Z,100380.23
2019-02-27T11:47:45.075Z,100371.23
2019-02-27T11:52:49.058Z,100366.77
2019-02-27T11:57:51.283Z,100361.41
2019-02-27T12:02:54.283Z,100342.78
2019-02-27T12:07:57.516Z,100336.73
2019-02-27T12:13:01.302Z,100318.45
2019-02-27T12:18:04.882Z,100307.22
2019-02-27T12:23:10.086Z,100294.29
2019-02-27T12:28:15.231Z,100288.72
2019-02-27T12:33:18.312Z,100266.59
2019-02-27T12:38:21.368Z,100290.52
2019-02-27T12:43:24.427Z,100287.02
2019-02-27T12:48:27.419Z,100282.45
2019-02-27T12:53:30.517Z,100273.91
2019-02-27T12:58:33.601Z,100255.34
2019-02-27T13:03:36.719Z,100254.47
2019-02-27T13:08:39.856Z,100252.03
2019-02-27T13:13:43.280Z,100251.18
2019-02-27T13:18:46.588Z,100229.32
2019-02-27T13:23:49.633Z,100221.13
2019-02-27T13:28:52.973Z,100211.34
2019-02-27T13:33:56.290Z,100205.28
2019-02-27T13:38:59.490Z,100195.58
2019-02-27T13:44:02.697Z,100194.89
2019-02-27T13:49:05.643Z,100188.05
2019-02-27T13:54:09.012Z,100185.44
2019-02-27T13:59:12.065Z,100179.92
2019-02-27T14:04:15.118Z,100167.77
2019-02-27T14:09:19.088Z,100171.33
2019-02-27T14:14:22.461Z,100160.74
2019-02-27T14:19:25.583Z,100160.30
2019-02-27T14:24:28.656Z,100132.63
2019-02-27T14:29:32.034Z,100141.41
2019-02-27T14:34:35.451Z,100134.08
2019-02-27T14:39:38.555Z,100129.73
2019-02-27T14:44:41.570Z,100113.14
2019-02-27T14:49:44.644Z,100097.13
2019-02-27T14:54:47.957Z,100088.28
2019-02-27T14:59:51.293Z,100089.09
2019-02-27T15:04:54.389Z,100077.23
2019-02-27T15:09:57.474Z,100059.19
2019-02-27T15:15:00.450Z,100047.01
2019-02-27T15:20:05.617Z,100031.31
2019-02-27T15:25:11.655Z,100022.31
2019-02-27T15:30:18.076Z,100017.31
2019-02-27T15:35:22.193Z,100007.13
2019-02-27T15:40:28.565Z,99993.49
2019-02-27T15:45:30.992Z,99982.89
2019-02-27T15:50:34.208Z,99966.12
2019-02-27T15:55:37.958Z,99966.20
2019-02-27T16:00:41.076Z,99961.27
2019-02-27T16:05:44.171Z,99948.02
2019-02-27T16:10:54.530Z,99945.69
2019-02-27T16:15:52.520Z,99937.45
2019-02-27T16:20:55.969Z,99932.18
2019-02-27T16:25:58.965Z,99927.67
2019-02-27T16:31:05.911Z,99918.55
2019-02-27T16:36:07.433Z,99916.52
2019-02-27T16:41:10.956Z,99909.36
2019-02-27T16:46:14.098Z,99902.52
2019-02-27T16:51:17.298Z,99901.27
2019-02-27T16:56:20.471Z,99895.79
2019-02-27T17:01:29.174Z,99895.15
2019-02-27T17:06:29.173Z,99891.30
2019-02-27T17:11:33.212Z,99888.11
2019-02-27T17:16:38.421Z,99874.33
2019-02-27T17:21:41.769Z,99864.86
2019-02-27T17:26:46.423Z,99865.86
2019-02-27T17:31:52.639Z,99859.73
2019-02-27T17:36:54.847Z,99854.61
2019-02-27T17:41:57.929Z,99846.66
2019-02-27T17:47:00.974Z,99838.02
2019-02-27T17:52:11.092Z,99831.53
2019-02-27T17:57:09.213Z,99820.75
2019-02-27T18:02:12.386Z,99814.55
2019-02-27T18:07:15.780Z,99807.41
2019-02-27T18:12:18.837Z,99805.16
2019-02-27T18:17:21.959Z,99783.91
2019-02-27T18:22:24.927Z,99779.85
2019-02-27T18:27:28.019Z,99772.86
2019-02-27T18:32:31.013Z,99771.20
2019-02-27T18:37:33.995Z,99766.11
2019-02-27T18:42:37.028Z,99753.70
2019-02-27T18:47:40.115Z,99733.47
2019-02-27T18:52:43.388Z,99735.63
2019-02-27T18:57:47.598Z,99728.41
2019-02-27T19:02:53.260Z,99730.02
2019-02-27T19:07:56.320Z,99732.10
2019-02-27T19:13:00.767Z,99729.47
2019-02-27T19:18:06.543Z,99717.70
2019-02-27T19:23:10.232Z,99692.09
2019-02-27T19:28:13.323Z,99687.66
2019-02-27T19:33:16.435Z,99684.91
2019-02-27T19:38:19.452Z,99680.34
2019-02-27T19:43:22.593Z,99669.28
2019-02-27T19:48:26.256Z,99669.75
2019-02-27T19:53:30.482Z,99664.64
2019-02-27T19:58:33.678Z,99653.95
2019-02-27T20:03:36.980Z,99645.80
2019-02-27T20:08:44.392Z,99643.19
2019-02-27T20:13:45.140Z,99644.27
2019-02-27T20:18:54.780Z,99643.16
2019-02-27T20:23:53.344Z,99634.28
2019-02-27T20:28:56.325Z,99627.42
2019-02-27T20:33:59.301Z,99616.47
2019-02-27T20:39:04.168Z,99611.83
2019-02-27T20:44:07.167Z,99611.29
2019-02-27T20:49:10.466Z,99607.20
2019-02-27T20:54:15.430Z,99595.95
2019-02-27T20:59:18.957Z,99589.28
2019-02-27T21:04:22.124Z,99587.22
2019-02-27T21:09:25.269Z,99574.65
2019-02-27T21:14:28.269Z,99567.23
2019-02-27T21:19:33.854Z,99552.79
2019-02-27T21:24:37.334Z,99553.05
2019-02-27T21:29:43.380Z,99540.22
2019-02-27T21:34:46.275Z,99532.42
2019-02-27T21:39:49.331Z,99522.91
2019-02-27T21:44:52.547Z,99514.17
2019-02-27T21:49:55.522Z,99505.65
2019-02-27T21:54:58.500Z,99494.59
2019-02-27T22:00:01.493Z,99487.77
2019-02-27T22:05:05.434Z,99474.97
2019-02-27T22:10:10.298Z,99479.36
2019-02-27T22:15:25.871Z,99471.45
2019-02-27T22:20:28.823Z,99460.09
2019-02-27T22:25:31.877Z,99465.80
2019-02-27T22:30:34.948Z,99467.87
2019-02-27T22:35:38.614Z,99455.25
2019-02-27T22:40:41.881Z,99443.73
2019-02-27T22:45:44.841Z,99438.55
2019-02-27T22:50:47.996Z,99431.39
2019-02-27T22:55:51.047Z,99419.06
2019-02-27T23:01:11.127Z,99411.50
2019-02-27T23:06:14.378Z,99409.01
2019-02-27T23:11:18.199Z,99401.69
2019-02-27T23:16:21.227Z,99403.50
2019-02-27T23:21:26.638Z,99406.59
2019-02-27T23:26:48.202Z,99396.61
2019-02-27T23:31:51.148Z,99380.58
2019-02-27T23:36:55.828Z,99375.49
2019-02-27T23:41:59.425Z,99368.53
2019-02-27T23:47:02.536Z,99366.81
2019-02-27T23:52:05.510Z,99353.79
2019-02-27T23:57:08.649Z,99340.08
